Oakland, CA

4:55 PM PST on December 07, 2016 (GMT -0800)
Downtown Oakland | | Change Station

Elev 16 ft 37.81 °N, 122.27 °W | Updated 18 seconds ago

Light Rain
Light Rain
49.1 °F
Feels Like 49 °F
N
0.0
Wind Variable Wind from ESE
Gusts 0.0 mph

Today
High -- | Low -- °F
--% Chance of Precip.
Yesterday
High -- | Low -- °F
Precip. -- in
Pressure 30.13 in
Visibility 10.0 miles
Clouds Few 4900 ft
Mostly Cloudy 6500 ft
Overcast 8000 ft
Windchill 49 °F
Dew Point 40 °F
Humidity 70%
Rainfall 0.00 in
Snow Depth Not available.
7:11 AM 4:49 PM
First Quarter, 57% visible
METAR KOAK 072353Z 10007KT 10SM -RA FEW049 BKN065 OVC080 10/03 A3013 RMK AO2 RAE15B37 SLP201 P0000 60000 T01000028 10117 20089 56012
Pressure 30.13 in
Visibility 10.0 miles
Clouds Few 4900 ft
Mostly Cloudy 6500 ft
Overcast 8000 ft
Windchill 49 °F
Dew Point 40 °F
Humidity 70%
Rainfall 0.00 in
Snow Depth Not available.
7:11 AM 4:49 PM
First Quarter, 57% visible
METAR KOAK 072353Z 10007KT 10SM -RA FEW049 BKN065 OVC080 10/03 A3013 RMK AO2 RAE15B37 SLP201 P0000 60000 T01000028 10117 20089 56012

10-Day Weather Forecast

Almanac

Astronomy

Dec. 07, 2016 Rise Set
Actual Time
Civil Twilight
Nautical Twilight
Astronomical Twilight
Moon
Length of Visible Light
Length of Day
Tomorrow will be .
, % of the Moon is Illuminated

Today's Extremes

State Highs State Lows

Community

WunderPhotos

Upload Photos

1,956,237 photos uploaded!

WunderBlog® & News

Nearby

Air Quality

  Air Quality AQ Index Pollutant
Not available.

Snow Depth

Station Depth Elevation

Earthquake Activity

City Distance Mag. Time & Date
Minimum magnitude displayed is 2.5.

Coastal Water Temperatures

Place Temperature

Stations

Nearby Weather Stations

Station Location Temp. Windchill Dew Point Humidity Wind Precip. Elev Updated Type
                   

Watches & Warnings

There are currently no watches in effect.